createdAt,value
2019-03-13T00:04:37.367Z,6.00
2019-03-13T00:09:40.804Z,5.96
2019-03-13T00:14:44.300Z,5.95
2019-03-13T00:19:47.745Z,6.03
2019-03-13T00:24:51.167Z,5.94
2019-03-13T00:29:55.400Z,5.94
2019-03-13T00:34:58.944Z,5.99
2019-03-13T00:40:02.406Z,5.91
2019-03-13T00:45:08.601Z,5.94
2019-03-13T00:50:30.248Z,5.76
2019-03-13T00:55:33.648Z,5.77
2019-03-13T01:00:55.670Z,5.65
2019-03-13T01:06:00.981Z,5.65
2019-03-13T01:11:04.632Z,5.76
2019-03-13T01:16:08.137Z,5.74
2019-03-13T01:21:11.743Z,5.82
2019-03-13T01:26:15.165Z,5.79
2019-03-13T01:31:20.363Z,5.81
2019-03-13T01:36:23.766Z,5.88
2019-03-13T01:41:27.191Z,5.89
2019-03-13T01:46:30.620Z,5.89
2019-03-13T01:51:34.028Z,5.91
2019-03-13T01:56:37.535Z,5.86
2019-03-13T02:01:40.976Z,5.89
2019-03-13T02:06:44.487Z,5.92
2019-03-13T02:11:47.912Z,5.91
2019-03-13T02:16:51.538Z,5.90
2019-03-13T02:21:54.976Z,5.86
2019-03-13T02:26:58.519Z,5.73
2019-03-13T02:32:01.949Z,5.67
2019-03-13T02:37:05.413Z,5.71
2019-03-13T02:42:08.845Z,5.73
2019-03-13T02:47:12.423Z,5.82
2019-03-13T02:52:15.874Z,5.89
2019-03-13T02:57:19.306Z,5.88
2019-03-13T03:02:39.620Z,5.84
2019-03-13T03:07:43.148Z,5.87
2019-03-13T03:12:46.632Z,5.80
2019-03-13T03:17:50.085Z,5.89
2019-03-13T03:22:53.523Z,5.94
2019-03-13T03:27:56.973Z,5.96
2019-03-13T03:33:00.414Z,5.96
2019-03-13T03:38:03.928Z,6.02
2019-03-13T03:43:07.352Z,6.08
2019-03-13T03:48:10.801Z,6.00
2019-03-13T03:53:14.311Z,6.08
2019-03-13T03:58:17.842Z,6.15
2019-03-13T04:03:21.276Z,6.13
2019-03-13T04:08:25.512Z,6.17
2019-03-13T04:13:29.099Z,6.19
2019-03-13T04:18:32.500Z,6.19
2019-03-13T04:23:35.964Z,6.22
2019-03-13T04:28:39.383Z,6.21
2019-03-13T04:33:42.829Z,6.33
2019-03-13T04:38:46.270Z,6.32
2019-03-13T04:43:49.781Z,6.35
2019-03-13T04:48:53.222Z,6.47
2019-03-13T04:53:56.648Z,6.53
2019-03-13T04:59:00.083Z,6.50
2019-03-13T05:04:03.520Z,6.45
2019-03-13T05:09:07.019Z,6.48
2019-03-13T05:14:10.454Z,6.52
2019-03-13T05:19:13.905Z,6.51
2019-03-13T05:24:17.339Z,6.58
2019-03-13T05:29:20.868Z,6.65
2019-03-13T05:34:24.358Z,6.56
2019-03-13T05:39:27.827Z,6.62
2019-03-13T05:44:31.269Z,6.66
2019-03-13T05:49:34.703Z,6.66
2019-03-13T05:54:38.137Z,6.67
2019-03-13T05:59:41.578Z,6.65
2019-03-13T06:04:45.000Z,6.75
2019-03-13T06:09:48.424Z,6.65
2019-03-13T06:14:51.927Z,6.73
2019-03-13T06:19:55.360Z,6.74
2019-03-13T06:24:59.035Z,6.66
2019-03-13T06:30:02.568Z,6.68
2019-03-13T06:35:07.552Z,6.72
2019-03-13T06:40:18.617Z,6.70
2019-03-13T06:45:23.487Z,6.81
2019-03-13T06:50:26.934Z,6.82
2019-03-13T06:55:30.388Z,6.83
2019-03-13T07:00:44.230Z,6.96
2019-03-13T07:05:52.214Z,6.96
2019-03-13T07:10:57.291Z,7.00
2019-03-13T07:16:02.383Z,7.04
2019-03-13T07:21:25.485Z,7.09
2019-03-13T07:26:45.636Z,7.14
2019-03-13T07:31:53.378Z,7.19
2019-03-13T07:36:58.444Z,7.08
2019-03-13T07:42:03.527Z,7.03
2019-03-13T07:47:23.501Z,6.97
2019-03-13T07:52:37.348Z,6.93
2019-03-13T07:57:45.224Z,6.93
2019-03-13T08:02:56.025Z,6.91
2019-03-13T08:13:43.875Z,6.81
2019-03-13T08:18:48.966Z,6.73
2019-03-13T08:23:56.834Z,6.73
2019-03-13T08:29:11.116Z,6.78
2019-03-13T08:34:19.063Z,6.75
2019-03-13T08:39:26.945Z,6.81
2019-03-13T08:44:34.621Z,6.88
2019-03-13T08:55:12.475Z,7.23
2019-03-13T09:00:30.104Z,7.28
2019-03-13T09:05:37.905Z,7.17
2019-03-13T09:10:59.369Z,7.29
2019-03-13T09:16:07.389Z,7.26
2019-03-13T09:21:12.454Z,7.23
2019-03-13T09:26:32.537Z,7.29
2019-03-13T09:37:02.670Z,7.48
2019-03-13T09:42:07.770Z,7.48
2019-03-13T09:47:15.251Z,7.37
2019-03-13T09:52:20.320Z,7.44
2019-03-13T09:57:37.460Z,7.42
2019-03-13T10:02:45.254Z,7.69
2019-03-13T10:07:52.776Z,7.82
2019-03-13T10:18:29.662Z,7.85
2019-03-13T10:23:43.671Z,7.86
2019-03-13T10:29:04.055Z,8.00
2019-03-13T10:34:12.013Z,7.94
2019-03-13T10:39:23.022Z,7.75
2019-03-13T10:44:30.850Z,7.77
2019-03-13T10:49:35.931Z,7.74
2019-03-13T10:54:56.231Z,7.51
2019-03-13T11:00:10.400Z,7.27
2019-03-13T11:05:21.481Z,7.41
2019-03-13T11:10:29.111Z,7.49
2019-03-13T11:15:43.137Z,7.41
2019-03-13T11:21:06.766Z,7.37
2019-03-13T11:26:11.914Z,7.32
2019-03-13T11:31:17.110Z,7.32
2019-03-13T11:47:20.367Z,7.36
2019-03-13T11:52:41.894Z,7.47
2019-03-13T11:57:46.977Z,7.40
2019-03-13T12:02:54.692Z,7.47
2019-03-13T12:08:08.747Z,7.44
2019-03-13T12:13:13.841Z,7.49
2019-03-13T12:18:24.651Z,7.50
2019-03-13T12:23:46.085Z,7.53
2019-03-13T12:29:06.405Z,7.64
2019-03-13T12:34:11.473Z,7.73
2019-03-13T12:39:22.365Z,7.90
2019-03-13T12:44:43.479Z,8.03
2019-03-13T12:49:51.338Z,8.18
2019-03-13T12:55:02.974Z,8.17
2019-03-13T13:00:29.460Z,8.16
2019-03-13T13:05:50.505Z,7.93
2019-03-13T13:10:55.628Z,7.57
2019-03-13T13:16:09.880Z,7.45
2019-03-13T13:21:13.318Z,7.29
2019-03-13T13:26:16.838Z,7.23
2019-03-13T13:31:20.362Z,7.13
2019-03-13T13:36:26.633Z,7.05
2019-03-13T13:41:28.961Z,6.96
2019-03-13T13:46:32.627Z,6.81
2019-03-13T13:51:36.067Z,6.89
2019-03-13T13:56:39.502Z,6.87
2019-03-13T14:01:43.081Z,6.79
2019-03-13T14:06:46.488Z,6.85
2019-03-13T14:11:49.931Z,6.74
2019-03-13T14:16:53.374Z,6.83
2019-03-13T14:21:56.820Z,6.79
2019-03-13T14:27:13.456Z,6.85
2019-03-13T14:32:05.423Z,6.84
2019-03-13T14:37:08.860Z,6.87
2019-03-13T14:42:12.304Z,6.86
2019-03-13T14:47:15.758Z,6.82
2019-03-13T14:52:19.216Z,6.79
2019-03-13T14:57:22.728Z,6.83
2019-03-13T15:02:26.166Z,6.79
2019-03-13T15:07:29.650Z,6.84
2019-03-13T15:12:33.097Z,6.86
2019-03-13T15:17:36.545Z,7.00
2019-03-13T15:22:39.972Z,6.99
2019-03-13T15:27:43.388Z,7.01
2019-03-13T15:32:46.821Z,7.10
2019-03-13T15:37:50.320Z,7.25
2019-03-13T15:42:53.837Z,7.29
2019-03-13T15:47:57.292Z,7.37
2019-03-13T15:53:00.745Z,7.44
2019-03-13T15:58:04.285Z,7.34
2019-03-13T16:03:08.064Z,7.30
2019-03-13T16:08:11.472Z,7.28
2019-03-13T16:13:14.924Z,7.13
2019-03-13T16:18:18.386Z,7.18
2019-03-13T16:23:21.835Z,7.15
2019-03-13T16:28:25.274Z,7.17
2019-03-13T16:33:28.707Z,7.15
2019-03-13T16:38:32.178Z,7.16
2019-03-13T16:43:35.622Z,7.01
2019-03-13T16:48:39.076Z,7.04
2019-03-13T16:53:42.495Z,7.01
2019-03-13T16:58:45.943Z,7.00
2019-03-13T17:03:49.372Z,6.95
2019-03-13T17:08:53.842Z,6.98
2019-03-13T17:13:57.296Z,6.99
2019-03-13T17:19:00.751Z,6.92
2019-03-13T17:24:04.689Z,6.93
2019-03-13T17:29:08.384Z,6.95
2019-03-13T17:34:11.883Z,6.91
2019-03-13T17:39:16.429Z,6.80
2019-03-13T17:44:19.856Z,6.81
2019-03-13T17:49:23.297Z,6.84
2019-03-13T17:54:27.649Z,6.90
2019-03-13T17:59:31.090Z,6.88
2019-03-13T18:04:34.533Z,6.90
2019-03-13T18:09:37.977Z,6.76
2019-03-13T18:14:41.416Z,6.82
2019-03-13T18:19:44.922Z,6.83
2019-03-13T18:24:48.342Z,6.84
2019-03-13T18:29:51.784Z,6.88
2019-03-13T18:34:55.233Z,6.88
2019-03-13T18:39:58.738Z,6.85
2019-03-13T18:45:02.153Z,6.95
2019-03-13T18:50:08.675Z,6.92
2019-03-13T18:55:17.592Z,6.93
2019-03-13T19:00:23.161Z,6.85
2019-03-13T19:05:27.727Z,6.91
2019-03-13T19:10:34.789Z,6.93
2019-03-13T19:15:40.085Z,6.82
2019-03-13T19:20:43.480Z,6.89
2019-03-13T19:25:46.984Z,6.91
2019-03-13T19:30:50.438Z,6.95
2019-03-13T19:35:53.832Z,6.96
2019-03-13T19:40:57.547Z,6.94
2019-03-13T19:46:00.988Z,6.95
2019-03-13T19:51:04.564Z,7.02
2019-03-13T19:56:07.987Z,6.97
2019-03-13T20:01:11.401Z,7.04
2019-03-13T20:06:14.846Z,7.01
2019-03-13T20:11:18.285Z,6.97
2019-03-13T20:16:21.730Z,6.99
2019-03-13T20:21:25.161Z,7.03
2019-03-13T20:26:28.604Z,6.93
2019-03-13T20:31:32.067Z,6.97
2019-03-13T20:36:35.510Z,6.93
2019-03-13T20:41:39.047Z,6.95
2019-03-13T20:46:42.633Z,6.94
2019-03-13T20:51:46.075Z,7.03
2019-03-13T20:56:49.541Z,7.03
2019-03-13T21:01:53.879Z,6.93
2019-03-13T21:06:57.297Z,7.01
2019-03-13T21:12:00.744Z,7.00
2019-03-13T21:17:04.275Z,6.98
2019-03-13T21:22:07.705Z,7.05
2019-03-13T21:27:11.137Z,7.04
2019-03-13T21:32:14.557Z,7.08
2019-03-13T21:37:17.981Z,7.09
2019-03-13T21:42:21.727Z,7.01
2019-03-13T21:47:25.149Z,7.01
2019-03-13T21:52:28.689Z,7.03
2019-03-13T21:57:32.111Z,7.04
2019-03-13T22:02:36.592Z,7.04
2019-03-13T22:07:40.224Z,6.95
2019-03-13T22:12:43.592Z,7.01
2019-03-13T22:17:46.999Z,6.99
2019-03-13T22:22:50.490Z,6.97
2019-03-13T22:27:53.953Z,6.93
2019-03-13T22:32:57.375Z,6.95
2019-03-13T22:38:00.987Z,6.94
2019-03-13T22:43:04.747Z,6.95
2019-03-13T22:48:08.139Z,6.96
2019-03-13T22:53:11.585Z,6.99
2019-03-13T22:58:15.044Z,6.93
2019-03-13T23:03:20.017Z,6.94
2019-03-13T23:08:23.598Z,6.92
2019-03-13T23:13:27.006Z,6.86
2019-03-13T23:18:30.432Z,6.89
2019-03-13T23:23:37.466Z,6.82
2019-03-13T23:28:40.850Z,6.84
2019-03-13T23:33:44.288Z,6.91
2019-03-13T23:38:47.764Z,6.87
2019-03-13T23:43:51.207Z,6.90
2019-03-13T23:48:54.661Z,6.89
2019-03-13T23:53:58.097Z,6.90
2019-03-13T23:59:01.566Z,6.90
